createdAt,value
2016-08-30T00:01:43.624Z,0.00
2016-08-30T00:02:47.722Z,0.00
2016-08-30T00:03:43.919Z,0.00
2016-08-30T00:04:44.411Z,0.00
2016-08-30T00:05:44.924Z,0.00
2016-08-30T00:06:45.589Z,0.00
2016-08-30T00:07:46.094Z,0.00
2016-08-30T00:08:46.606Z,0.00
2016-08-30T00:09:46.971Z,0.00
2016-08-30T00:10:47.485Z,0.00
2016-08-30T00:11:48.156Z,0.00
2016-08-30T00:12:48.544Z,0.00
2016-08-30T00:13:49.037Z,0.00
2016-08-30T00:14:49.549Z,0.00
2016-08-30T00:15:50.060Z,0.00
2016-08-30T00:16:50.571Z,0.00
2016-08-30T00:17:51.078Z,0.00
2016-08-30T00:18:51.743Z,0.00
2016-08-30T00:19:53.455Z,0.00
2016-08-30T00:20:52.623Z,0.00
2016-08-30T00:21:53.135Z,0.00
2016-08-30T00:22:53.642Z,0.00
2016-08-30T00:23:54.157Z,0.00
2016-08-30T00:24:54.691Z,0.00
2016-08-30T00:25:55.183Z,0.00
2016-08-30T00:26:55.691Z,0.00
2016-08-30T00:27:56.206Z,0.00
2016-08-30T00:28:56.876Z,0.00
2016-08-30T00:29:57.234Z,0.00
2016-08-30T00:30:57.742Z,0.00
2016-08-30T00:31:58.264Z,0.00
2016-08-30T00:32:58.772Z,0.00
2016-08-30T00:33:59.433Z,0.00
2016-08-30T00:34:59.790Z,0.00
2016-08-30T00:36:00.305Z,0.00
2016-08-30T00:37:00.816Z,0.00
2016-08-30T00:38:02.980Z,0.00
2016-08-30T00:39:01.836Z,0.00
2016-08-30T00:40:02.650Z,0.00
2016-08-30T00:41:02.863Z,0.00
2016-08-30T00:42:03.376Z,0.00
2016-08-30T00:43:03.918Z,0.00
2016-08-30T00:44:04.397Z,0.00
2016-08-30T00:45:04.916Z,0.00
2016-08-30T00:46:05.424Z,0.00
2016-08-30T00:47:05.947Z,0.00
2016-08-30T00:48:06.468Z,0.00
2016-08-30T00:49:06.972Z,0.00
2016-08-30T00:50:07.489Z,0.00
2016-08-30T00:51:08.157Z,0.00
2016-08-30T00:52:08.515Z,0.00
2016-08-30T00:53:09.049Z,0.00
2016-08-30T00:54:09.543Z,0.00
2016-08-30T00:55:10.061Z,0.00
2016-08-30T00:56:10.720Z,0.00
2016-08-30T00:57:11.090Z,0.00
2016-08-30T00:58:11.602Z,0.00
2016-08-30T00:59:12.267Z,0.00
2016-08-30T01:00:13.378Z,0.00
2016-08-30T01:01:13.142Z,0.00
2016-08-30T01:02:13.656Z,0.00
2016-08-30T01:03:14.318Z,0.00
2016-08-30T01:04:14.680Z,0.00
2016-08-30T01:05:15.341Z,0.00
2016-08-30T01:06:15.708Z,0.00
2016-08-30T01:07:16.219Z,0.00
2016-08-30T01:08:16.732Z,0.00
2016-08-30T01:09:17.247Z,0.00
2016-08-30T01:10:18.438Z,0.00
2016-08-30T01:11:18.272Z,0.00
2016-08-30T01:12:18.782Z,0.00
2016-08-30T01:13:19.303Z,0.00
2016-08-30T01:14:19.808Z,0.00
2016-08-30T01:15:20.322Z,0.00
2016-08-30T01:16:20.832Z,0.00
2016-08-30T01:17:21.346Z,0.00
2016-08-30T01:18:21.858Z,0.00
2016-08-30T01:19:22.378Z,0.00
2016-08-30T01:20:22.896Z,0.00
2016-08-30T01:21:23.403Z,0.00
2016-08-30T01:22:24.218Z,0.00
2016-08-30T01:23:24.576Z,0.00
2016-08-30T01:24:24.943Z,0.00
2016-08-30T01:25:25.607Z,0.00
2016-08-30T01:26:25.973Z,0.00
2016-08-30T01:27:26.639Z,0.00
2016-08-30T01:28:27.004Z,0.00
2016-08-30T01:29:27.667Z,0.00
2016-08-30T01:30:28.025Z,0.00
2016-08-30T01:31:28.542Z,0.00
2016-08-30T01:32:29.055Z,0.00
2016-08-30T01:33:29.589Z,0.00
2016-08-30T01:34:30.081Z,0.00
2016-08-30T01:35:30.595Z,0.00
2016-08-30T01:36:31.105Z,0.00
2016-08-30T01:37:31.622Z,0.00
2016-08-30T01:38:32.132Z,0.00
2016-08-30T01:39:32.644Z,0.00
2016-08-30T01:40:33.305Z,0.00
2016-08-30T01:41:33.664Z,0.00
2016-08-30T01:42:34.176Z,0.00
2016-08-30T01:43:34.690Z,0.00
2016-08-30T01:44:35.205Z,0.00
2016-08-30T01:45:35.711Z,0.00
2016-08-30T01:46:36.230Z,0.00
2016-08-30T01:47:36.734Z,0.00
2016-08-30T01:48:37.250Z,0.00
2016-08-30T01:49:37.768Z,0.00
2016-08-30T01:50:38.281Z,0.00
2016-08-30T01:51:38.796Z,0.00
2016-08-30T01:52:39.310Z,0.00
2016-08-30T01:53:39.974Z,0.00
2016-08-30T01:54:40.332Z,0.00
2016-08-30T01:55:40.847Z,0.00
2016-08-30T01:56:41.355Z,0.00
2016-08-30T01:57:41.862Z,0.00
2016-08-30T01:58:42.382Z,0.00
2016-08-30T01:59:42.886Z,0.00
2016-08-30T02:00:43.403Z,0.00
2016-08-30T02:01:43.921Z,0.00
2016-08-30T02:02:44.455Z,0.00
2016-08-30T02:03:44.948Z,0.00
2016-08-30T02:04:45.463Z,0.00
2016-08-30T02:05:45.982Z,0.00
2016-08-30T02:06:46.492Z,0.00
2016-08-30T02:07:47.031Z,0.00
2016-08-30T02:08:47.517Z,0.00
2016-08-30T02:09:48.033Z,0.00
2016-08-30T02:10:48.551Z,0.00
2016-08-30T02:11:49.061Z,0.00
2016-08-30T02:12:49.873Z,0.00
2016-08-30T02:13:50.680Z,0.00
2016-08-30T02:14:50.596Z,0.00
2016-08-30T02:15:51.276Z,0.00
2016-08-30T02:16:51.620Z,0.00
2016-08-30T02:17:52.290Z,0.00
2016-08-30T02:18:52.656Z,0.00
2016-08-30T02:19:53.174Z,0.00
2016-08-30T02:20:53.676Z,0.00
2016-08-30T02:21:54.188Z,0.00
2016-08-30T02:22:54.707Z,0.00
2016-08-30T02:23:55.247Z,0.00
2016-08-30T02:24:55.730Z,0.00
2016-08-30T02:25:56.243Z,0.00
2016-08-30T02:26:56.907Z,0.00
2016-08-30T02:27:57.276Z,0.00
2016-08-30T02:28:57.781Z,0.00
2016-08-30T02:29:58.444Z,0.00
2016-08-30T02:30:58.808Z,0.00
2016-08-30T02:31:59.325Z,0.00
2016-08-30T02:32:59.834Z,0.00
2016-08-30T02:34:00.379Z,0.00
2016-08-30T02:35:00.860Z,0.00
2016-08-30T02:36:01.376Z,0.00
2016-08-30T02:37:01.902Z,0.00
2016-08-30T02:38:02.398Z,0.00
2016-08-30T02:39:02.907Z,0.00
2016-08-30T02:40:03.420Z,0.00
2016-08-30T02:41:04.086Z,0.00
2016-08-30T02:42:04.453Z,0.00
2016-08-30T02:43:04.968Z,0.00
2016-08-30T02:44:06.992Z,0.00
2016-08-30T02:45:06.606Z,0.00
2016-08-30T02:46:06.514Z,0.00
2016-08-30T02:47:07.026Z,0.00
2016-08-30T02:48:07.537Z,0.00
2016-08-30T02:49:08.046Z,0.00
2016-08-30T02:50:09.017Z,0.00
2016-08-30T02:51:09.080Z,0.00
2016-08-30T02:52:09.588Z,0.00
2016-08-30T02:53:10.131Z,0.00
2016-08-30T02:54:10.616Z,0.00
2016-08-30T02:55:11.274Z,0.00
2016-08-30T02:56:11.633Z,0.00
2016-08-30T02:57:12.144Z,0.00
2016-08-30T02:58:12.664Z,0.00
2016-08-30T02:59:13.176Z,0.00
2016-08-30T03:00:13.684Z,0.00
2016-08-30T03:01:14.196Z,0.00
2016-08-30T03:02:14.859Z,0.00
2016-08-30T03:03:15.370Z,0.00
2016-08-30T03:04:15.737Z,0.00
2016-08-30T03:05:16.250Z,0.00
2016-08-30T03:06:16.761Z,0.00
2016-08-30T03:07:17.277Z,0.00
2016-08-30T03:08:17.790Z,0.00
2016-08-30T03:09:18.306Z,0.00
2016-08-30T03:10:18.818Z,0.00
2016-08-30T03:11:19.332Z,0.00
2016-08-30T03:12:20.000Z,0.00
2016-08-30T03:13:20.395Z,0.00
2016-08-30T03:14:20.872Z,0.00
2016-08-30T03:15:21.380Z,0.00
2016-08-30T03:16:21.899Z,0.00
2016-08-30T03:17:22.404Z,0.00
2016-08-30T03:18:22.918Z,0.00
2016-08-30T03:19:23.436Z,0.00
2016-08-30T03:20:24.128Z,0.00
2016-08-30T03:21:24.470Z,0.00
2016-08-30T03:22:24.983Z,0.00
2016-08-30T03:23:25.523Z,0.00
2016-08-30T03:24:26.010Z,0.00
2016-08-30T03:25:26.520Z,0.00
2016-08-30T03:26:27.068Z,0.00
2016-08-30T03:27:27.556Z,0.00
2016-08-30T03:28:28.216Z,0.00
2016-08-30T03:29:28.716Z,0.00
2016-08-30T03:30:29.101Z,0.00
2016-08-30T03:31:29.589Z,0.00
2016-08-30T03:32:30.251Z,0.00
2016-08-30T03:33:30.645Z,0.00
2016-08-30T03:34:31.280Z,0.00
2016-08-30T03:35:31.645Z,0.00
2016-08-30T03:36:32.162Z,0.00
2016-08-30T03:37:32.679Z,0.00
2016-08-30T03:38:33.187Z,0.00
2016-08-30T03:39:33.699Z,0.00
2016-08-30T03:40:34.214Z,0.00
2016-08-30T03:41:34.725Z,0.00
2016-08-30T03:42:35.237Z,0.00
2016-08-30T03:43:35.754Z,0.00
2016-08-30T03:44:36.277Z,0.00
2016-08-30T03:45:36.774Z,0.00
2016-08-30T03:46:37.289Z,0.00
2016-08-30T03:47:37.799Z,0.00
2016-08-30T03:48:38.313Z,0.00
2016-08-30T03:49:40.625Z,0.00
2016-08-30T03:50:39.338Z,0.00
2016-08-30T03:51:39.850Z,0.00
2016-08-30T03:52:40.370Z,0.00
2016-08-30T03:53:41.026Z,0.00
2016-08-30T03:54:41.392Z,0.00
2016-08-30T03:55:41.935Z,0.00
2016-08-30T03:56:42.425Z,0.00
2016-08-30T03:57:42.936Z,0.00
2016-08-30T03:58:43.453Z,0.00
2016-08-30T03:59:43.969Z,0.00
2016-08-30T04:00:44.483Z,0.00
2016-08-30T04:01:44.991Z,0.00
2016-08-30T04:02:45.685Z,0.00
2016-08-30T04:03:46.020Z,0.00
2016-08-30T04:04:46.531Z,0.00
2016-08-30T04:05:47.201Z,0.00
2016-08-30T04:06:47.563Z,0.00
2016-08-30T04:07:48.072Z,0.00
2016-08-30T04:08:48.590Z,0.00
2016-08-30T04:09:49.097Z,0.00
2016-08-30T04:10:49.611Z,0.00
2016-08-30T04:11:50.123Z,0.00
2016-08-30T04:12:50.796Z,0.00
2016-08-30T04:13:51.150Z,0.00
2016-08-30T04:14:51.817Z,0.00
2016-08-30T04:15:52.195Z,0.00
2016-08-30T04:16:52.692Z,0.00
2016-08-30T04:17:53.349Z,0.00
2016-08-30T04:18:53.715Z,0.00
2016-08-30T04:19:55.283Z,0.00
2016-08-30T04:20:54.750Z,0.00
2016-08-30T04:21:55.255Z,0.00
2016-08-30T04:22:55.917Z,0.00
2016-08-30T04:23:56.434Z,0.00
2016-08-30T04:24:56.807Z,0.00
2016-08-30T04:25:57.310Z,0.00
2016-08-30T04:26:57.821Z,0.00
2016-08-30T04:27:58.330Z,0.00
2016-08-30T04:28:58.849Z,0.00
2016-08-30T04:29:59.359Z,1.00
2016-08-30T04:30:59.873Z,0.00
2016-08-30T04:32:00.398Z,0.00
2016-08-30T04:33:00.904Z,0.00
2016-08-30T04:34:01.423Z,0.00
2016-08-30T04:35:02.537Z,0.00
2016-08-30T04:36:02.452Z,0.00
2016-08-30T04:37:02.968Z,0.00
2016-08-30T04:38:03.472Z,0.00
2016-08-30T04:39:03.983Z,0.00
2016-08-30T04:40:04.523Z,0.00
2016-08-30T04:41:05.012Z,0.00
2016-08-30T04:42:05.518Z,0.00
2016-08-30T04:43:06.184Z,0.00
2016-08-30T04:44:06.544Z,0.00
2016-08-30T04:45:07.216Z,0.00
2016-08-30T04:46:07.582Z,0.00
2016-08-30T04:47:08.077Z,0.00
2016-08-30T04:48:08.591Z,0.00
2016-08-30T04:49:09.104Z,0.00
2016-08-30T04:50:09.614Z,0.00
2016-08-30T04:51:10.139Z,0.00
2016-08-30T04:52:10.637Z,0.00
2016-08-30T04:53:11.159Z,0.00
2016-08-30T04:54:11.811Z,0.00
2016-08-30T04:55:12.326Z,0.00
2016-08-30T04:56:12.689Z,0.00
2016-08-30T04:57:13.204Z,0.00
2016-08-30T04:58:13.714Z,0.00
2016-08-30T04:59:14.230Z,0.00
2016-08-30T05:00:14.743Z,0.00
2016-08-30T05:01:15.255Z,0.00
2016-08-30T05:02:15.763Z,1.00
2016-08-30T05:03:16.279Z,1.00
2016-08-30T05:04:16.796Z,1.00
2016-08-30T05:05:17.324Z,1.00
2016-08-30T05:06:17.807Z,1.00
2016-08-30T05:07:18.318Z,1.00
2016-08-30T05:08:20.045Z,1.00
2016-08-30T05:09:19.343Z,1.00
2016-08-30T05:10:20.015Z,2.00
2016-08-30T05:11:20.525Z,2.00
2016-08-30T05:12:20.895Z,2.00
2016-08-30T05:13:21.414Z,2.00
2016-08-30T05:14:21.921Z,2.00
2016-08-30T05:15:22.460Z,2.00
2016-08-30T05:16:22.945Z,2.00
2016-08-30T05:17:23.454Z,2.00
2016-08-30T05:18:23.972Z,2.00
2016-08-30T05:19:24.636Z,2.00
2016-08-30T05:20:25.002Z,2.00
2016-08-30T05:21:25.519Z,2.00
2016-08-30T05:22:26.027Z,2.00
2016-08-30T05:23:26.542Z,2.00
2016-08-30T05:24:27.077Z,2.00
2016-08-30T05:25:27.566Z,2.00
2016-08-30T05:26:28.082Z,2.00
2016-08-30T05:27:28.741Z,2.00
2016-08-30T05:28:29.105Z,3.00
2016-08-30T05:29:29.619Z,3.00
2016-08-30T05:30:30.136Z,3.00
2016-08-30T05:31:30.640Z,3.00
2016-08-30T05:32:31.155Z,3.00
2016-08-30T05:33:31.824Z,2.00
2016-08-30T05:34:32.199Z,3.00
2016-08-30T05:35:32.693Z,9.00
2016-08-30T05:36:33.207Z,3.00
2016-08-30T05:37:33.718Z,3.00
2016-08-30T05:38:34.235Z,3.00
2016-08-30T05:39:38.959Z,3.00
2016-08-30T05:40:35.268Z,3.00
2016-08-30T05:41:38.038Z,2.00
2016-08-30T05:42:36.452Z,3.00
2016-08-30T05:43:39.067Z,3.00
2016-08-30T05:44:37.339Z,3.00
2016-08-30T05:45:39.951Z,3.00
2016-08-30T05:46:38.361Z,3.00
2016-08-30T05:47:39.028Z,3.00
2016-08-30T05:48:39.395Z,3.00
2016-08-30T05:49:40.061Z,3.00
2016-08-30T05:50:40.431Z,3.00
2016-08-30T05:51:41.099Z,3.00
2016-08-30T05:52:42.065Z,4.00
2016-08-30T05:53:42.137Z,4.00
2016-08-30T05:58:44.548Z,4.00
2016-08-30T05:59:45.815Z,4.00
2016-08-30T06:02:46.983Z,4.00
2016-08-30T06:03:47.113Z,4.00
2016-08-30T06:04:47.623Z,9.00
2016-08-30T06:05:48.283Z,4.00
2016-08-30T06:06:48.813Z,4.00
2016-08-30T06:07:49.216Z,4.00
2016-08-30T06:09:41.633Z,9.00
2016-08-30T06:10:51.301Z,5.00
2016-08-30T06:11:51.210Z,5.00
2016-08-30T06:12:51.727Z,6.00
2016-08-30T06:13:53.586Z,6.00
2016-08-30T06:14:52.906Z,6.00
2016-08-30T06:15:53.262Z,5.00
2016-08-30T06:16:53.929Z,5.00
2016-08-30T06:17:54.294Z,6.00
2016-08-30T06:18:54.830Z,6.00
2016-08-30T06:19:55.320Z,6.00
2016-08-30T06:20:55.830Z,5.00
2016-08-30T06:21:56.349Z,5.00
2016-08-30T06:22:56.859Z,6.00
2016-08-30T06:23:57.821Z,6.00
2016-08-30T06:24:57.890Z,6.00
2016-08-30T06:25:58.406Z,6.00
2016-08-30T06:26:58.911Z,6.00
2016-08-30T06:27:59.600Z,6.00
2016-08-30T06:28:59.955Z,7.00
2016-08-30T06:30:00.463Z,7.00
2016-08-30T06:31:00.974Z,8.00
2016-08-30T06:32:01.493Z,8.00
2016-08-30T06:33:01.996Z,9.00
2016-08-30T06:34:02.510Z,9.00
2016-08-30T06:35:03.021Z,7.00
2016-08-30T06:36:03.530Z,9.00
2016-08-30T06:37:04.203Z,9.00
2016-08-30T06:38:04.719Z,9.00
2016-08-30T06:39:05.080Z,9.00
2016-08-30T06:40:05.592Z,9.00
2016-08-30T06:41:06.102Z,9.00
2016-08-30T06:42:06.616Z,9.00
2016-08-30T06:43:07.272Z,19.00
2016-08-30T06:44:07.638Z,11.00
2016-08-30T06:45:08.325Z,11.00
2016-08-30T06:46:08.824Z,11.00
2016-08-30T06:47:09.331Z,11.00
2016-08-30T06:48:09.692Z,11.00
2016-08-30T06:49:10.352Z,12.00
2016-08-30T06:50:10.718Z,13.00
2016-08-30T06:51:11.375Z,13.00
2016-08-30T06:52:11.895Z,13.00
2016-08-30T06:53:12.252Z,13.00
2016-08-30T06:54:12.925Z,14.00
2016-08-30T06:55:13.883Z,14.00
2016-08-30T06:56:13.811Z,13.00
2016-08-30T06:57:14.304Z,13.00
2016-08-30T06:58:14.816Z,14.00
2016-08-30T06:59:15.335Z,13.00
2016-08-30T07:00:15.846Z,13.00
2016-08-30T07:01:16.503Z,14.00
2016-08-30T07:02:16.870Z,15.00
2016-08-30T07:03:17.392Z,15.00
2016-08-30T07:04:17.900Z,15.00
2016-08-30T07:05:18.562Z,15.00
2016-08-30T07:06:18.936Z,15.00
2016-08-30T07:07:19.449Z,14.00
2016-08-30T07:08:19.986Z,15.00
2016-08-30T07:09:20.477Z,17.00
2016-08-30T07:10:20.994Z,29.00
2016-08-30T07:11:21.518Z,21.00
2016-08-30T07:12:22.025Z,23.00
2016-08-30T07:13:22.540Z,25.00
2016-08-30T07:14:23.052Z,29.00
2016-08-30T07:15:23.570Z,39.00
2016-08-30T07:16:24.078Z,36.00
2016-08-30T07:17:24.592Z,35.00
2016-08-30T07:18:25.104Z,32.00
2016-08-30T07:19:25.626Z,27.00
2016-08-30T07:20:27.183Z,27.00
2016-08-30T07:21:26.796Z,28.00
2016-08-30T07:22:27.160Z,28.00
2016-08-30T07:23:27.674Z,26.00
2016-08-30T07:24:28.189Z,28.00
2016-08-30T07:25:29.605Z,39.00
2016-08-30T07:26:29.367Z,49.00
2016-08-30T07:27:29.736Z,44.00
2016-08-30T07:28:30.246Z,44.00
2016-08-30T07:29:30.759Z,46.00
2016-08-30T07:30:31.269Z,45.00
2016-08-30T07:31:31.788Z,79.00
2016-08-30T07:32:32.315Z,68.00
2016-08-30T07:33:32.965Z,77.00
2016-08-30T07:34:33.331Z,68.00
2016-08-30T07:35:33.839Z,69.00
2016-08-30T07:36:34.356Z,79.00
2016-08-30T07:37:34.879Z,71.00
2016-08-30T07:38:35.383Z,68.00
2016-08-30T07:39:35.894Z,89.00
2016-08-30T07:40:36.405Z,84.00
2016-08-30T07:41:36.955Z,99.00
2016-08-30T07:42:37.447Z,99.00
2016-08-30T07:43:37.955Z,99.00
2016-08-30T07:44:38.469Z,99.00
2016-08-30T07:45:38.982Z,99.00
2016-08-30T07:46:39.493Z,89.00
2016-08-30T07:47:40.009Z,99.00
2016-08-30T07:48:40.519Z,99.00
2016-08-30T07:49:41.035Z,99.00
2016-08-30T07:50:41.550Z,99.00
2016-08-30T07:51:42.084Z,99.00
2016-08-30T07:52:42.571Z,99.00
2016-08-30T07:53:43.081Z,99.00
2016-08-30T07:54:43.596Z,99.00
2016-08-30T07:55:44.136Z,99.00
2016-08-30T07:56:44.617Z,99.00
2016-08-30T07:57:45.129Z,99.00
2016-08-30T07:58:45.646Z,99.00
2016-08-30T07:59:46.306Z,99.00
2016-08-30T08:00:46.826Z,99.00
2016-08-30T08:01:47.196Z,99.00
2016-08-30T08:02:47.697Z,99.00
2016-08-30T08:03:48.218Z,99.00
2016-08-30T08:04:48.724Z,99.00
2016-08-30T08:05:49.271Z,99.00
2016-08-30T08:06:49.755Z,99.00
2016-08-30T08:07:50.262Z,99.00
2016-08-30T08:08:50.777Z,99.00
2016-08-30T08:09:51.290Z,99.00
2016-08-30T08:10:51.805Z,99.00
2016-08-30T08:11:52.345Z,99.00
2016-08-30T08:12:52.980Z,99.00
2016-08-30T08:13:53.341Z,99.00
2016-08-30T08:14:53.854Z,99.00
2016-08-30T08:15:54.363Z,99.00
2016-08-30T08:16:54.882Z,99.00
2016-08-30T08:17:55.389Z,99.00
2016-08-30T08:18:55.911Z,98.00
2016-08-30T08:19:58.075Z,97.00
2016-08-30T08:20:56.951Z,98.00
2016-08-30T08:21:57.462Z,97.00
2016-08-30T08:22:57.969Z,99.00
2016-08-30T08:23:58.482Z,98.00
2016-08-30T08:24:58.998Z,98.00
2016-08-30T08:25:59.509Z,97.00
2016-08-30T08:27:00.041Z,96.00
2016-08-30T08:28:00.539Z,96.00
2016-08-30T08:29:01.201Z,96.00
2016-08-30T08:30:01.567Z,96.00
2016-08-30T08:31:02.079Z,96.00
2016-08-30T08:32:02.588Z,95.00
2016-08-30T08:33:03.255Z,95.00
2016-08-30T08:34:03.767Z,95.00
2016-08-30T08:35:05.179Z,95.00
2016-08-30T08:36:04.649Z,95.00
2016-08-30T08:37:05.152Z,95.00
2016-08-30T08:38:05.665Z,94.00
2016-08-30T08:39:06.180Z,93.00
2016-08-30T08:40:06.690Z,93.00
2016-08-30T08:42:21.830Z,93.00
2016-08-30T08:43:08.235Z,94.00
2016-08-30T08:44:08.767Z,94.00
2016-08-30T08:45:15.649Z,93.00
2016-08-30T08:46:10.202Z,93.00
2016-08-30T08:47:10.326Z,93.00
2016-08-30T08:48:10.797Z,94.00
2016-08-30T08:49:11.336Z,94.00
2016-08-30T08:50:12.302Z,94.00
2016-08-30T08:51:12.486Z,93.00
2016-08-30T08:52:13.015Z,93.00
2016-08-30T08:53:13.364Z,92.00
2016-08-30T08:54:13.901Z,92.00
2016-08-30T08:55:15.286Z,92.00
2016-08-30T08:56:14.903Z,92.00
2016-08-30T08:57:15.421Z,91.00
2016-08-30T08:58:16.113Z,91.00
2016-08-30T08:59:17.654Z,91.00
2016-08-30T09:00:18.176Z,90.00
2016-08-30T09:01:17.497Z,90.00
2016-08-30T09:02:17.996Z,99.00
2016-08-30T09:03:18.514Z,99.00
2016-08-30T09:04:19.023Z,99.00
2016-08-30T09:05:21.008Z,99.00
2016-08-30T09:06:20.059Z,99.00
2016-08-30T09:07:20.587Z,99.00
2016-08-30T09:08:21.074Z,99.00
2016-08-30T09:09:21.591Z,99.00
2016-08-30T09:10:22.855Z,91.00
2016-08-30T09:11:22.618Z,99.00
2016-08-30T09:12:23.584Z,99.00
2016-08-30T09:13:23.791Z,99.00
2016-08-30T09:14:24.175Z,89.00
2016-08-30T09:15:24.677Z,89.00
2016-08-30T09:16:25.183Z,89.00
2016-08-30T09:17:25.699Z,89.00
2016-08-30T09:18:26.214Z,88.00
2016-08-30T09:19:26.726Z,89.00
2016-08-30T09:20:27.240Z,88.00
2016-08-30T09:21:27.760Z,88.00
2016-08-30T09:22:28.268Z,89.00
2016-08-30T09:23:28.791Z,87.00
2016-08-30T09:24:29.312Z,86.00
2016-08-30T09:25:29.802Z,86.00
2016-08-30T09:26:30.344Z,85.00
2016-08-30T09:27:30.827Z,85.00
2016-08-30T09:28:31.374Z,85.00
2016-08-30T09:29:31.851Z,84.00
2016-08-30T09:30:32.520Z,84.00
2016-08-30T09:31:32.881Z,84.00
2016-08-30T09:32:33.394Z,83.00
2016-08-30T09:33:33.910Z,83.00
2016-08-30T09:34:34.439Z,83.00
2016-08-30T09:35:34.943Z,83.00
2016-08-30T09:36:35.455Z,82.00
2016-08-30T09:37:35.972Z,82.00
2016-08-30T09:38:36.486Z,82.00
2016-08-30T09:39:37.146Z,81.00
2016-08-30T09:40:37.509Z,81.00
2016-08-30T09:41:38.030Z,80.00
2016-08-30T09:42:38.686Z,81.00
2016-08-30T09:43:39.202Z,80.00
2016-08-30T09:44:39.596Z,81.00
2016-08-30T09:45:40.115Z,81.00
2016-08-30T09:46:40.585Z,89.00
2016-08-30T09:47:41.102Z,79.00
2016-08-30T09:48:41.763Z,78.00
2016-08-30T09:49:42.128Z,78.00
2016-08-30T09:50:42.635Z,77.00
2016-08-30T09:51:43.149Z,77.00
2016-08-30T09:52:43.668Z,77.00
2016-08-30T09:53:44.178Z,77.00
2016-08-30T09:54:44.836Z,78.00
2016-08-30T09:55:45.207Z,77.00
2016-08-30T09:56:45.870Z,75.00
2016-08-30T09:57:46.253Z,74.00
2016-08-30T09:58:46.743Z,75.00
2016-08-30T09:59:47.256Z,76.00
2016-08-30T10:00:47.767Z,75.00
2016-08-30T10:01:48.304Z,75.00
2016-08-30T10:02:48.947Z,74.00
2016-08-30T10:03:49.321Z,74.00
2016-08-30T10:04:49.959Z,74.00
2016-08-30T10:05:50.496Z,73.00
2016-08-30T10:06:50.835Z,73.00
2016-08-30T10:07:51.342Z,73.00
2016-08-30T10:08:51.858Z,72.00
2016-08-30T10:09:52.372Z,72.00
2016-08-30T10:10:52.887Z,72.00
2016-08-30T10:11:53.553Z,73.00
2016-08-30T10:12:53.923Z,72.00
2016-08-30T10:13:54.436Z,72.00
2016-08-30T10:14:54.957Z,71.00
2016-08-30T10:15:55.618Z,71.00
2016-08-30T10:16:57.182Z,70.00
2016-08-30T10:17:56.488Z,70.00
2016-08-30T10:18:57.003Z,79.00
2016-08-30T10:19:57.519Z,70.00
2016-08-30T10:20:58.029Z,79.00
2016-08-30T10:21:58.542Z,69.00
2016-08-30T10:22:59.054Z,69.00
2016-08-30T10:23:59.569Z,69.00
2016-08-30T10:25:00.113Z,69.00
2016-08-30T10:26:00.743Z,68.00
2016-08-30T10:27:01.105Z,68.00
2016-08-30T10:28:01.622Z,68.00
2016-08-30T10:29:02.127Z,67.00
2016-08-30T10:30:02.642Z,67.00
2016-08-30T10:31:03.163Z,69.00
2016-08-30T10:32:03.670Z,67.00
2016-08-30T10:33:04.184Z,66.00
2016-08-30T10:34:04.699Z,66.00
2016-08-30T10:35:05.214Z,66.00
2016-08-30T10:36:05.746Z,65.00
2016-08-30T10:37:06.233Z,65.00
2016-08-30T10:38:06.750Z,69.00
2016-08-30T10:39:07.258Z,64.00
2016-08-30T10:40:08.067Z,64.00
2016-08-30T10:41:08.284Z,63.00
2016-08-30T10:42:08.944Z,63.00
2016-08-30T10:43:09.306Z,63.00
2016-08-30T10:44:09.826Z,63.00
2016-08-30T10:45:10.489Z,63.00
2016-08-30T10:46:10.855Z,62.00
2016-08-30T10:47:11.357Z,62.00
2016-08-30T10:48:11.875Z,61.00
2016-08-30T10:49:12.544Z,61.00
2016-08-30T10:50:13.505Z,61.00
2016-08-30T10:51:13.427Z,60.00
2016-08-30T10:52:13.938Z,60.00
2016-08-30T10:53:14.456Z,60.00
2016-08-30T10:54:14.973Z,69.00
2016-08-30T10:55:15.482Z,59.00
2016-08-30T10:56:16.291Z,59.00
2016-08-30T10:57:16.535Z,58.00
2016-08-30T10:58:17.022Z,58.00
2016-08-30T10:59:17.540Z,58.00
2016-08-30T11:00:18.054Z,57.00
2016-08-30T11:01:18.566Z,57.00
2016-08-30T11:02:19.077Z,57.00
2016-08-30T11:03:19.585Z,57.00
2016-08-30T11:04:20.244Z,56.00
2016-08-30T11:05:20.758Z,56.00
2016-08-30T11:06:21.271Z,56.00
2016-08-30T11:07:21.792Z,55.00
2016-08-30T11:08:22.167Z,55.00
2016-08-30T11:09:22.678Z,55.00
2016-08-30T11:10:23.170Z,54.00
2016-08-30T11:11:23.833Z,54.00
2016-08-30T11:12:24.196Z,53.00
2016-08-30T11:13:24.711Z,53.00
2016-08-30T11:14:25.237Z,53.00
2016-08-30T11:15:25.888Z,53.00
2016-08-30T11:16:26.406Z,53.00
2016-08-30T11:17:26.763Z,52.00
2016-08-30T11:18:27.454Z,52.00
2016-08-30T11:19:27.815Z,52.00
2016-08-30T11:20:28.311Z,52.00
2016-08-30T11:21:28.821Z,51.00
2016-08-30T11:22:29.333Z,51.00
2016-08-30T11:23:29.849Z,50.00
2016-08-30T11:24:30.362Z,59.00
2016-08-30T11:25:30.873Z,59.00
2016-08-30T11:26:31.392Z,59.00
2016-08-30T11:27:31.910Z,49.00
2016-08-30T11:28:32.434Z,49.00
2016-08-30T11:29:32.972Z,49.00
2016-08-30T11:30:33.465Z,48.00
2016-08-30T11:31:33.979Z,48.00
2016-08-30T11:32:34.490Z,48.00
2016-08-30T11:33:35.012Z,47.00
2016-08-30T11:34:35.521Z,47.00
2016-08-30T11:35:36.033Z,47.00
2016-08-30T11:36:36.544Z,47.00
2016-08-30T11:37:37.358Z,46.00
2016-08-30T11:38:37.580Z,46.00
2016-08-30T11:39:38.234Z,45.00
2016-08-30T11:40:38.606Z,45.00
2016-08-30T11:41:39.115Z,45.00
2016-08-30T11:42:39.629Z,45.00
2016-08-30T11:43:40.182Z,45.00
2016-08-30T11:44:40.655Z,45.00
2016-08-30T11:45:41.174Z,44.00
2016-08-30T11:46:41.837Z,44.00
2016-08-30T11:47:42.199Z,44.00
2016-08-30T11:48:42.882Z,44.00
2016-08-30T11:49:43.224Z,43.00
2016-08-30T11:50:43.748Z,43.00
2016-08-30T11:51:44.249Z,49.00
2016-08-30T11:52:44.913Z,43.00
2016-08-30T11:53:45.276Z,42.00
2016-08-30T11:54:47.144Z,42.00
2016-08-30T11:55:46.302Z,42.00
2016-08-30T11:56:46.964Z,42.00
2016-08-30T11:57:47.326Z,42.00
2016-08-30T11:58:47.848Z,41.00
2016-08-30T11:59:48.377Z,41.00
2016-08-30T12:00:48.866Z,41.00
2016-08-30T12:01:49.376Z,41.00
2016-08-30T12:02:49.895Z,41.00
2016-08-30T12:03:50.411Z,40.00
2016-08-30T12:04:50.919Z,49.00
2016-08-30T12:05:51.439Z,40.00
2016-08-30T12:06:51.961Z,40.00
2016-08-30T12:07:52.616Z,40.00
2016-08-30T12:08:53.019Z,40.00
2016-08-30T12:09:53.643Z,49.00
2016-08-30T12:10:54.003Z,49.00
2016-08-30T12:11:54.513Z,39.00
2016-08-30T12:12:55.034Z,39.00
2016-08-30T12:13:55.545Z,39.00
2016-08-30T12:14:56.204Z,39.00
2016-08-30T12:15:56.570Z,39.00
2016-08-30T12:16:57.081Z,39.00
2016-08-30T12:17:57.593Z,49.00
2016-08-30T12:18:58.252Z,40.00
2016-08-30T12:19:58.769Z,40.00
2016-08-30T12:20:59.133Z,40.00
2016-08-30T12:21:59.645Z,49.00
2016-08-30T12:23:00.158Z,49.00
2016-08-30T12:24:00.670Z,39.00
2016-08-30T12:25:01.186Z,39.00
2016-08-30T12:26:01.697Z,39.00
2016-08-30T12:27:02.207Z,39.00
2016-08-30T12:28:02.871Z,39.00
2016-08-30T12:29:03.235Z,39.00
2016-08-30T12:30:03.746Z,39.00
2016-08-30T12:31:04.869Z,39.00
2016-08-30T12:32:04.928Z,39.00
2016-08-30T12:33:05.288Z,39.00
2016-08-30T12:34:05.804Z,39.00
2016-08-30T12:35:06.316Z,39.00
2016-08-30T12:36:06.829Z,39.00
2016-08-30T12:37:07.343Z,39.00
2016-08-30T12:38:07.856Z,38.00
2016-08-30T12:39:08.376Z,38.00
2016-08-30T12:40:08.880Z,38.00
2016-08-30T12:41:09.408Z,38.00
2016-08-30T12:42:09.908Z,38.00
2016-08-30T12:43:11.177Z,38.00
2016-08-30T12:44:10.937Z,38.00
2016-08-30T12:45:12.652Z,38.00
2016-08-30T12:46:11.963Z,38.00
2016-08-30T12:47:12.626Z,38.00
2016-08-30T12:48:12.990Z,38.00
2016-08-30T12:49:13.806Z,38.00
2016-08-30T12:50:14.189Z,38.00
2016-08-30T12:51:14.533Z,37.00
2016-08-30T12:52:15.039Z,39.00
2016-08-30T12:53:15.556Z,37.00
2016-08-30T12:54:16.066Z,37.00
2016-08-30T12:55:16.582Z,37.00
2016-08-30T12:56:17.121Z,37.00
2016-08-30T12:57:17.610Z,37.00
2016-08-30T12:58:18.121Z,37.00
2016-08-30T12:59:18.638Z,37.00
2016-08-30T13:00:19.153Z,37.00
2016-08-30T13:01:19.667Z,36.00
2016-08-30T13:02:20.179Z,36.00
2016-08-30T13:03:20.691Z,36.00
2016-08-30T13:04:21.354Z,39.00
2016-08-30T13:05:21.717Z,36.00
2016-08-30T13:06:22.228Z,36.00
2016-08-30T13:07:22.897Z,36.00
2016-08-30T13:08:23.251Z,36.00
2016-08-30T13:09:23.768Z,36.00
2016-08-30T13:10:24.578Z,36.00
2016-08-30T13:11:25.084Z,36.00
2016-08-30T13:12:25.299Z,36.00
2016-08-30T13:13:25.811Z,36.00
2016-08-30T13:14:26.335Z,36.00
2016-08-30T13:15:26.841Z,36.00
2016-08-30T13:16:27.349Z,36.00
2016-08-30T13:17:27.865Z,39.00
2016-08-30T13:18:28.377Z,35.00
2016-08-30T13:19:28.893Z,35.00
2016-08-30T13:20:29.411Z,35.00
2016-08-30T13:21:29.940Z,35.00